Okarito, New Zealand
Current Conditions -  °F | °C
As of 9:00 PM on Thursday 27 Nov 2014 (Local Time) from NZCH Reporting Station
Clear Clear  
Wind Chill: 59°   Ceiling: Unl
Heat Index: 59°   Visibility: 6mi
Dew Point: 32°   Wind: 9mph
Humidity: 36%   Direction: 300°WNW
Pressure: 29.47"   Gusts: NA
Location:  43.22°S, 170.17°E
Report Text: NZCH 270900Z AUTO 30008KT 260V330 9999 NCD 15/00 Q0998 NOSIG
Loading
Personal Weather Stations






























Interactive Weather Map New forecast layout! Learn more

10-Day Weather Forecast

Advertisements
Track Severe Weather on mobile